Time;durP1;ratioP1;P1;durP2;ratioP2;P2;SDS_P1;SDS_P2;PMS_P1;PMS_P2;Temp;Humidity;BMP_temperature;BMP_pressure;BME280_temperature;BME280_humidity;BME280_pressure;Samples;Min_cycle;Max_cycle;Signal;HPM_P1;HPM_P2
2023/12/16 00:00:13;;;;;;;5.72;5.13;;;;;;;5.59;100.00;100912.94;4127779;28;20362;-45
2023/12/16 00:02:15;;;;;;;4.32;3.60;;;;;;;5.52;100.00;100917.31;4112750;28;20242;-44
2023/12/16 00:04:17;;;;;;;5.28;4.65;;;;;;;5.58;100.00;100922.09;4125171;28;20213;-45
2023/12/16 00:06:20;;;;;;;4.88;4.53;;;;;;;5.62;100.00;100923.50;4113403;28;20210;-45
2023/12/16 00:08:22;;;;;;;5.07;4.18;;;;;;;5.57;100.00;100925.84;4114480;28;20601;-45
2023/12/16 00:10:24;;;;;;;5.72;5.22;;;;;;;5.44;100.00;100917.25;4124257;28;20264;-45
2023/12/16 00:12:26;;;;;;;5.53;5.00;;;;;;;5.43;100.00;100923.72;4112952;28;20282;-45
2023/12/16 00:14:28;;;;;;;4.60;4.22;;;;;;;5.59;100.00;100918.38;4113440;28;20214;-45
2023/12/16 00:16:30;;;;;;;7.05;4.93;;;;;;;5.48;100.00;100916.78;4106816;28;20764;-45
2023/12/16 00:18:35;;;;;;;4.63;4.05;;;;;;;5.48;100.00;100905.06;4110226;28;20679;-45
2023/12/16 00:20:37;;;;;;;5.10;4.70;;;;;;;5.49;100.00;100912.22;4124662;28;20231;-45
2023/12/16 00:22:39;;;;;;;4.05;3.67;;;;;;;5.49;100.00;100912.22;4127211;28;20266;-45
2023/12/16 00:24:42;;;;;;;4.72;4.32;;;;;;;5.56;100.00;100916.00;4119670;28;20254;-45
2023/12/16 00:26:44;;;;;;;5.22;3.95;;;;;;;5.52;100.00;100906.44;4133025;28;20483;-45
2023/12/16 00:28:46;;;;;;;5.40;5.00;;;;;;;5.54;100.00;100912.56;4115389;28;20206;-46
2023/12/16 00:30:48;;;;;;;3.38;3.13;;;;;;;5.54;100.00;100918.84;4117318;28;20218;-45
2023/12/16 00:32:50;;;;;;;6.38;5.53;;;;;;;5.55;100.00;100917.00;4111855;28;20256;-46
2023/12/16 00:34:52;;;;;;;5.55;5.15;;;;;;;5.58;100.00;100924.81;4127158;28;20288;-45
2023/12/16 00:36:54;;;;;;;5.22;4.82;;;;;;;5.65;100.00;100923.16;4111172;28;20276;-46
2023/12/16 00:38:57;;;;;;;4.28;3.95;;;;;;;5.62;100.00;100929.78;4111838;28;20223;-45
2023/12/16 00:40:59;;;;;;;7.78;6.07;;;;;;;5.64;100.00;100913.31;4122280;28;20214;-45
2023/12/16 00:43:02;;;;;;;5.57;4.78;;;;;;;5.71;100.00;100908.94;4098391;28;20206;-45
2023/12/16 00:45:05;;;;;;;4.35;4.05;;;;;;;5.64;100.00;100907.91;4090976;28;20253;-45
2023/12/16 00:47:06;;;;;;;4.38;3.97;;;;;;;5.67;100.00;100900.28;4106151;28;20739;-45
2023/12/16 00:49:08;;;;;;;4.88;4.18;;;;;;;5.61;100.00;100909.06;4127793;28;20218;-46
2023/12/16 00:51:10;;;;;;;5.15;3.70;;;;;;;5.61;100.00;100906.34;4113276;28;20579;-45
2023/12/16 00:53:12;;;;;;;4.20;3.60;;;;;;;5.72;100.00;100913.38;4089708;28;20340;-45
2023/12/16 00:55:14;;;;;;;6.07;5.50;;;;;;;5.65;100.00;100915.03;4109871;28;20219;-44
2023/12/16 00:57:15;;;;;;;5.90;5.40;;;;;;;5.70;100.00;100913.53;4111620;28;20238;-44
2023/12/16 00:59:17;;;;;;;11.35;4.55;;;;;;;5.65;100.00;100923.16;4112537;28;20202;-45
2023/12/16 01:01:19;;;;;;;7.13;6.50;;;;;;;5.60;100.00;100926.38;4108303;28;20273;-45
2023/12/16 01:03:21;;;;;;;6.40;5.80;;;;;;;5.59;100.00;100926.53;4125536;28;20207;-45
2023/12/16 01:05:23;;;;;;;5.35;4.85;;;;;;;5.77;100.00;100928.16;4111885;28;20213;-45
2023/12/16 01:07:25;;;;;;;8.18;5.55;;;;;;;5.68;100.00;100925.56;4109721;28;20400;-45
2023/12/16 01:09:26;;;;;;;4.45;4.05;;;;;;;5.63;100.00;100931.47;4112551;28;20249;-45
2023/12/16 01:11:28;;;;;;;3.78;3.45;;;;;;;5.60;100.00;100933.66;4108737;28;20211;-45
2023/12/16 01:13:30;;;;;;;4.03;3.65;;;;;;;5.60;100.00;100936.38;4104534;28;20752;-45
2023/12/16 01:15:31;;;;;;;4.43;4.13;;;;;;;5.59;100.00;100940.97;4113138;28;20230;-45
2023/12/16 01:17:33;;;;;;;5.00;4.70;;;;;;;5.61;100.00;100932.63;4109021;28;22318;-45
2023/12/16 01:19:35;;;;;;;4.30;4.00;;;;;;;5.69;100.00;100930.00;4095482;28;20211;-45
2023/12/16 01:21:43;;;;;;;8.32;3.40;;;;;;;5.79;100.00;100930.72;4107415;28;20226;-45
2023/12/16 01:23:45;;;;;;;6.63;6.05;;;;;;;5.69;100.00;100928.13;4109082;28;20203;-45
2023/12/16 01:25:46;;;;;;;4.60;4.20;;;;;;;5.60;100.00;100922.78;4112931;28;20552;-45
2023/12/16 01:27:48;;;;;;;7.07;5.25;;;;;;;5.58;100.00;100927.53;4106906;28;20242;-45
2023/12/16 01:29:50;;;;;;;3.70;3.38;;;;;;;5.49;100.00;100923.91;4112261;28;20691;-45
2023/12/16 01:31:52;;;;;;;10.05;4.00;;;;;;;5.51;100.00;100923.75;4109479;28;20241;-44
2023/12/16 01:33:53;;;;;;;4.78;4.38;;;;;;;5.61;100.00;100910.91;4124341;28;20230;-45
2023/12/16 01:35:55;;;;;;;4.80;4.40;;;;;;;5.40;100.00;100924.00;4089896;28;20262;-45
2023/12/16 01:37:57;;;;;;;4.22;3.88;;;;;;;5.62;100.00;100920.78;4104507;28;20238;-45
2023/12/16 01:40:00;;;;;;;6.45;4.40;;;;;;;5.50;100.00;100924.78;4124282;28;20216;-45
2023/12/16 01:42:02;;;;;;;4.15;3.83;;;;;;;5.48;100.00;100930.34;4127988;28;20220;-45
2023/12/16 01:44:04;;;;;;;4.95;4.45;;;;;;;5.50;100.00;100928.31;4110250;28;20194;-45
2023/12/16 01:46:06;;;;;;;4.55;4.18;;;;;;;5.65;100.00;100934.03;4109160;28;20203;-45
2023/12/16 01:48:10;;;;;;;4.70;4.35;;;;;;;5.59;100.00;100931.97;4125724;28;20233;-45
2023/12/16 01:50:12;;;;;;;5.07;4.18;;;;;;;5.59;100.00;100934.66;4112944;28;20214;-45
2023/12/16 01:52:14;;;;;;;4.78;4.40;;;;;;;5.56;100.00;100935.84;4094976;28;20218;-46
2023/12/16 01:54:16;;;;;;;4.95;4.18;;;;;;;5.57;100.00;100934.00;4125335;28;20296;-45
2023/12/16 01:56:18;;;;;;;3.97;3.67;;;;;;;5.67;100.00;100937.44;4093655;28;20211;-45
2023/12/16 01:58:22;;;;;;;8.52;5.25;;;;;;;5.60;100.00;100933.66;4088438;28;21198;-44
2023/12/16 02:00:24;;;;;;;5.40;4.93;;;;;;;5.47;100.00;100935.94;4107096;28;20223;-44
2023/12/16 02:02:26;;;;;;;5.45;5.05;;;;;;;5.46;100.00;100942.38;4091454;28;20278;-46
2023/12/16 02:04:28;;;;;;;4.70;4.28;;;;;;;5.63;100.00;100946.94;4112125;28;20219;-44
2023/12/16 02:06:30;;;;;;;7.78;4.93;;;;;;;5.51;100.00;100940.06;4127257;28;20218;-45
2023/12/16 02:08:32;;;;;;;11.30;6.45;;;;;;;5.48;100.00;100943.94;4111138;28;20270;-45
2023/12/16 02:10:34;;;;;;;4.65;3.80;;;;;;;5.44;100.00;100949.84;4113016;28;20374;-45
2023/12/16 02:12:35;;;;;;;6.47;5.68;;;;;;;5.44;100.00;100958.00;4126330;28;20638;-45
2023/12/16 02:14:37;;;;;;;5.07;4.68;;;;;;;5.46;100.00;100950.53;4112610;28;20939;-45
2023/12/16 02:16:39;;;;;;;8.77;4.55;;;;;;;5.51;100.00;100950.91;4107534;28;20255;-45
2023/12/16 02:18:40;;;;;;;5.20;4.80;;;;;;;5.49;100.00;100950.22;4106999;28;20317;-45
2023/12/16 02:20:42;;;;;;;6.05;4.78;;;;;;;5.48;100.00;100956.63;4123903;28;20607;-45
2023/12/16 02:22:45;;;;;;;4.97;4.53;;;;;;;5.46;100.00;100956.81;4129448;28;20672;-45
2023/12/16 02:24:48;;;;;;;4.05;3.75;;;;;;;5.40;100.00;100956.59;4114081;28;20316;-45
2023/12/16 02:26:50;;;;;;;5.28;4.57;;;;;;;5.49;100.00;100958.38;4109531;28;20254;-45
2023/12/16 02:28:54;;;;;;;4.97;4.35;;;;;;;5.39;100.00;100963.91;4113372;28;20253;-45
2023/12/16 02:30:56;;;;;;;7.40;4.65;;;;;;;5.43;100.00;100956.28;4108164;28;20207;-45
2023/12/16 02:32:58;;;;;;;5.57;5.10;;;;;;;5.43;100.00;100961.72;4108614;28;20238;-45
2023/12/16 02:35:00;;;;;;;5.88;5.13;;;;;;;5.50;100.00;100963.63;4104460;28;20293;-45
2023/12/16 02:37:06;;;;;;;4.78;4.38;;;;;;;5.40;100.00;100959.31;4109947;28;20237;-45
2023/12/16 02:39:07;;;;;;;5.00;4.20;;;;;;;5.52;100.00;100963.47;4108615;28;20223;-45
2023/12/16 02:41:09;;;;;;;4.28;3.92;;;;;;;5.40;100.00;100962.00;4126904;28;20214;-45
2023/12/16 02:43:11;;;;;;;4.65;4.05;;;;;;;5.37;100.00;100956.91;4108803;28;20217;-45
2023/12/16 02:45:13;;;;;;;5.18;4.47;;;;;;;5.50;100.00;100973.66;4106806;28;20580;-45
2023/12/16 02:47:15;;;;;;;8.07;4.10;;;;;;;5.49;100.00;100977.38;4095518;28;20231;-45
2023/12/16 02:49:17;;;;;;;5.32;4.93;;;;;;;5.40;100.00;100967.44;4109613;28;20306;-45
2023/12/16 02:51:19;;;;;;;6.75;3.67;;;;;;;5.39;100.00;100971.19;4106799;28;20707;-45
2023/12/16 02:53:21;;;;;;;4.78;4.35;;;;;;;5.36;100.00;100977.75;4109948;28;20273;-45
2023/12/16 02:55:22;;;;;;;3.95;3.65;;;;;;;5.50;100.00;100984.50;4127049;28;20220;-45
2023/12/16 02:57:24;;;;;;;4.00;3.70;;;;;;;5.66;100.00;100981.91;4106727;28;20940;-45
2023/12/16 02:59:26;;;;;;;6.28;5.47;;;;;;;5.50;100.00;100984.50;4092742;28;20871;-45
2023/12/16 03:01:28;;;;;;;5.10;4.70;;;;;;;5.42;100.00;100979.03;4110282;28;20218;-45
2023/12/16 03:03:29;;;;;;;4.50;4.10;;;;;;;5.45;100.00;100982.28;4108247;28;20214;-45
2023/12/16 03:05:31;;;;;;;5.85;5.32;;;;;;;5.44;100.00;100980.53;4111671;28;20206;-45
2023/12/16 03:07:33;;;;;;;5.50;5.00;;;;;;;5.39;100.00;100982.91;4127454;28;20257;-45
2023/12/16 03:09:35;;;;;;;5.00;4.60;;;;;;;5.45;100.00;100981.41;4108469;28;20214;-45
2023/12/16 03:11:37;;;;;;;3.95;3.60;;;;;;;5.55;100.00;100982.19;4122685;28;20313;-45
2023/12/16 03:13:39;;;;;;;8.80;5.53;;;;;;;5.39;100.00;100972.03;4103192;28;20230;-45
2023/12/16 03:15:41;;;;;;;5.43;4.93;;;;;;;5.38;100.00;100977.63;4119486;28;20214;-45
2023/12/16 03:17:43;;;;;;;4.72;4.32;;;;;;;5.38;100.00;100985.75;4120356;28;22134;-45
2023/12/16 03:19:45;;;;;;;4.32;3.92;;;;;;;5.53;100.00;100984.19;4126462;28;20280;-45
2023/12/16 03:21:47;;;;;;;5.82;5.10;;;;;;;5.61;100.00;100992.38;4109893;28;21038;-45
2023/12/16 03:23:49;;;;;;;4.57;4.10;;;;;;;5.56;100.00;100997.47;4106079;28;20210;-46
2023/12/16 03:25:51;;;;;;;5.47;4.95;;;;;;;5.49;100.00;100983.66;4108547;28;20291;-45
2023/12/16 03:27:53;;;;;;;5.90;5.40;;;;;;;5.39;100.00;100982.03;4103794;28;20237;-46
2023/12/16 03:29:54;;;;;;;5.85;5.43;;;;;;;5.38;100.00;100980.34;4106098;28;20202;-45
2023/12/16 03:31:56;;;;;;;5.07;4.68;;;;;;;5.37;100.00;100973.19;4123964;28;20209;-45
2023/12/16 03:33:58;;;;;;;5.68;5.18;;;;;;;5.38;100.00;100981.19;4108099;28;20309;-45
2023/12/16 03:36:00;;;;;;;6.03;5.63;;;;;;;5.29;100.00;100976.69;4107316;28;20672;-45
2023/12/16 03:38:02;;;;;;;6.22;5.63;;;;;;;5.31;100.00;100979.25;4108100;28;20290;-45
2023/12/16 03:40:05;;;;;;;3.42;3.15;;;;;;;5.28;100.00;100976.84;4109987;28;20198;-45
2023/12/16 03:42:07;;;;;;;5.97;5.22;;;;;;;5.46;100.00;100975.84;4105761;28;22211;-45
2023/12/16 03:44:08;;;;;;;5.93;5.30;;;;;;;5.54;100.00;100975.03;4109748;28;20211;-45
2023/12/16 03:46:10;;;;;;;5.38;4.60;;;;;;;5.38;100.00;100973.06;4110065;28;20222;-45
2023/12/16 03:48:12;;;;;;;4.63;4.22;;;;;;;5.46;100.00;100974.97;4107067;28;20234;-45
2023/12/16 03:50:14;;;;;;;4.40;4.00;;;;;;;5.53;100.00;100973.31;4110361;28;20230;-45
2023/12/16 03:52:16;;;;;;;7.68;5.53;;;;;;;5.34;100.00;100968.06;4124237;28;20202;-45
2023/12/16 03:54:17;;;;;;;9.75;6.30;;;;;;;5.26;100.00;100973.44;4112150;28;20243;-45
2023/12/16 03:56:19;;;;;;;8.75;4.68;;;;;;;5.25;100.00;100974.44;4109198;28;20669;-45
2023/12/16 03:58:21;;;;;;;6.10;4.35;;;;;;;5.29;100.00;100981.28;4108612;28;20242;-45
2023/12/16 04:00:23;;;;;;;5.07;4.68;;;;;;;5.29;100.00;100978.56;4123628;28;20218;-45
2023/12/16 04:02:24;;;;;;;4.60;4.15;;;;;;;5.33;100.00;100982.66;4108169;28;20610;-45
2023/12/16 04:04:26;;;;;;;8.13;4.53;;;;;;;5.36;100.00;100982.38;4105259;28;20577;-45
2023/12/16 04:06:28;;;;;;;6.20;5.60;;;;;;;5.35;100.00;100970.63;4123839;28;20244;-44
2023/12/16 04:08:30;;;;;;;4.63;4.22;;;;;;;5.29;100.00;100965.00;4108448;28;20234;-45
2023/12/16 04:10:31;;;;;;;5.22;4.72;;;;;;;5.27;100.00;100969.72;4126961;28;20205;-45
2023/12/16 04:12:33;;;;;;;5.57;4.55;;;;;;;5.27;100.00;100962.44;4125110;28;20229;-45
2023/12/16 04:14:38;;;;;;;33.88;5.35;;;;;;;5.35;100.00;100965.22;4088795;28;20231;-45
2023/12/16 04:16:40;;;;;;;4.88;4.55;;;;;;;5.36;100.00;100976.94;4108793;28;20215;-45
2023/12/16 04:18:42;;;;;;;5.60;4.65;;;;;;;5.38;100.00;100978.50;4111272;28;20659;-46
2023/12/16 04:20:44;;;;;;;5.57;4.40;;;;;;;5.43;100.00;100984.28;4105453;28;20741;-45
2023/12/16 04:22:45;;;;;;;10.55;5.30;;;;;;;5.44;100.00;100985.97;4113072;28;20724;-44
2023/12/16 04:24:50;;;;;;;5.32;4.93;;;;;;;5.43;100.00;100984.28;4129103;28;20256;-45
2023/12/16 04:26:52;;;;;;;5.10;4.28;;;;;;;5.51;100.00;100980.78;4116738;28;20206;-45
2023/12/16 04:28:54;;;;;;;4.82;4.53;;;;;;;5.32;100.00;100978.25;4114534;28;20222;-45
2023/12/16 04:30:56;;;;;;;5.13;4.68;;;;;;;5.31;100.00;100976.53;4109366;28;20685;-45
2023/12/16 04:32:57;;;;;;;8.30;5.05;;;;;;;5.30;100.00;100982.97;4109958;28;20425;-45
2023/12/16 04:34:59;;;;;;;6.65;4.13;;;;;;;5.25;100.00;100974.44;4106114;28;20729;-45
2023/12/16 04:37:04;;;;;;;8.52;4.60;;;;;;;5.27;100.00;100972.41;4118803;28;20272;-45
2023/12/16 04:39:07;;;;;;;4.32;4.03;;;;;;;5.25;100.00;100974.44;4109003;28;20704;-45
2023/12/16 04:41:13;;;;;;;6.13;5.63;;;;;;;5.30;100.00;100977.56;4109867;28;20210;-45
2023/12/16 04:43:16;;;;;;;10.30;3.47;;;;;;;5.33;100.00;100974.50;4119939;28;20214;-45
2023/12/16 04:45:17;;;;;;;9.68;4.85;;;;;;;5.37;100.00;100963.19;4110232;28;20210;-45
2023/12/16 04:47:19;;;;;;;5.03;4.45;;;;;;;5.32;100.00;100965.53;4110178;28;20679;-45
2023/12/16 04:49:21;;;;;;;5.07;4.25;;;;;;;5.33;100.00;100956.38;4098163;28;20649;-45
2023/12/16 04:51:23;;;;;;;4.32;4.03;;;;;;;5.26;100.00;100954.44;4111272;28;20672;-45
2023/12/16 04:53:25;;;;;;;3.55;2.53;;;;;;;5.28;100.00;100953.28;4125702;28;20218;-45
2023/12/16 04:55:26;;;;;;;4.97;4.47;;;;;;;5.25;100.00;100952.72;4126674;28;21019;-45
2023/12/16 04:57:29;;;;;;;4.60;4.25;;;;;;;5.19;100.00;100947.94;4109926;28;20227;-45
2023/12/16 04:59:30;;;;;;;4.30;3.05;;;;;;;5.25;100.00;100941.88;4111089;28;20219;-45
2023/12/16 05:01:32;;;;;;;5.30;4.85;;;;;;;5.22;100.00;100947.63;4109339;28;20219;-45
2023/12/16 05:03:34;;;;;;;5.22;3.40;;;;;;;5.25;100.00;100947.31;4112006;28;20211;-45
2023/12/16 05:05:36;;;;;;;4.53;4.18;;;;;;;5.27;100.00;100950.72;4111993;28;20232;-45
2023/12/16 05:07:39;;;;;;;4.10;3.80;;;;;;;5.25;100.00;100955.44;4110823;28;20237;-45
2023/12/16 05:09:41;;;;;;;4.70;4.18;;;;;;;5.35;100.00;100967.91;4131233;28;20627;-45
2023/12/16 05:11:43;;;;;;;4.82;4.13;;;;;;;5.28;100.00;100968.69;4109326;28;20262;-45
2023/12/16 05:13:44;;;;;;;10.18;4.22;;;;;;;5.39;100.00;100965.75;4111474;28;20258;-45
2023/12/16 05:15:46;;;;;;;4.80;4.38;;;;;;;5.37;100.00;100962.34;4127820;28;21053;-45
2023/12/16 05:17:48;;;;;;;4.47;4.07;;;;;;;5.26;100.00;100970.72;4123322;28;20233;-45
2023/12/16 05:19:50;;;;;;;5.38;4.25;;;;;;;5.17;100.00;100969.78;4110013;28;20206;-46
2023/12/16 05:21:51;;;;;;;4.40;3.95;;;;;;;5.19;100.00;100969.63;4111544;28;20251;-45
2023/12/16 05:23:53;;;;;;;5.30;4.60;;;;;;;5.16;100.00;100972.69;4092513;28;21026;-45
2023/12/16 05:25:55;;;;;;;5.22;4.75;;;;;;;5.17;100.00;100979.81;4110246;28;20234;-45
2023/12/16 05:27:57;;;;;;;3.30;3.00;;;;;;;5.23;100.00;100976.47;4113131;28;20237;-45
2023/12/16 05:30:00;;;;;;;7.15;6.45;;;;;;;5.17;100.00;100974.38;4113394;28;20572;-45
2023/12/16 05:32:02;;;;;;;7.13;4.53;;;;;;;5.23;100.00;100982.75;4111154;28;20819;-45
2023/12/16 05:34:04;;;;;;;13.07;3.53;;;;;;;5.20;100.00;100983.06;4112044;28;20234;-45
2023/12/16 05:36:06;;;;;;;4.43;4.03;;;;;;;5.22;100.00;100980.19;4122626;28;20600;-45
2023/12/16 05:38:08;;;;;;;3.80;3.50;;;;;;;5.17;100.00;100980.66;4124418;28;20264;-45
2023/12/16 05:40:10;;;;;;;3.75;3.42;;;;;;;5.18;100.00;100976.09;4124927;28;20284;-45
2023/12/16 05:42:12;;;;;;;4.82;4.43;;;;;;;5.31;100.00;100973.81;4108600;28;20732;-46
2023/12/16 05:44:14;;;;;;;3.40;3.20;;;;;;;5.39;100.00;100974.75;4121686;28;20221;-45
2023/12/16 05:46:15;;;;;;;5.18;4.82;;;;;;;5.23;100.00;100971.88;4111184;28;20219;-45
2023/12/16 05:48:17;;;;;;;3.17;2.97;;;;;;;5.22;100.00;100974.78;4095364;28;20319;-45
2023/12/16 05:50:19;;;;;;;5.70;3.83;;;;;;;5.19;100.00;100977.78;4096244;28;20709;-46
2023/12/16 05:52:21;;;;;;;3.67;3.47;;;;;;;5.15;100.00;100976.41;4111432;28;20224;-45
2023/12/16 05:54:24;;;;;;;4.15;3.80;;;;;;;5.19;100.00;100980.50;4111482;28;20234;-45
2023/12/16 05:56:26;;;;;;;3.30;2.75;;;;;;;5.18;100.00;100963.38;4112342;28;20764;-45
2023/12/16 05:58:28;;;;;;;4.20;3.90;;;;;;;5.04;100.00;100972.03;4107013;28;20265;-45
2023/12/16 06:00:30;;;;;;;3.15;2.95;;;;;;;5.05;100.00;100972.91;4111554;28;20298;-45
2023/12/16 06:02:31;;;;;;;10.05;4.88;;;;;;;5.30;100.00;100982.97;4106638;28;20211;-45
2023/12/16 06:04:33;;;;;;;4.30;3.97;;;;;;;5.11;100.00;100975.00;4126434;28;20232;-45
2023/12/16 06:06:38;;;;;;;5.15;4.03;;;;;;;4.97;100.00;100986.41;4111115;28;21178;-45
2023/12/16 06:08:39;;;;;;;4.38;3.97;;;;;;;4.96;100.00;100990.13;4126789;28;20209;-45
2023/12/16 06:10:43;;;;;;;4.68;4.20;;;;;;;5.12;100.00;100990.28;4110638;28;20210;-45
2023/12/16 06:12:45;;;;;;;6.35;4.10;;;;;;;4.88;100.00;100994.59;4117123;28;20210;-44
2023/12/16 06:14:47;;;;;;;5.03;4.65;;;;;;;4.82;100.00;101001.50;4108106;28;20226;-45
2023/12/16 06:16:50;;;;;;;3.63;3.33;;;;;;;4.82;100.00;101000.63;4109309;28;20209;-45
2023/12/16 06:18:52;;;;;;;4.75;4.45;;;;;;;4.80;100.00;101003.50;4109232;28;20229;-44
2023/12/16 06:20:54;;;;;;;3.97;3.63;;;;;;;4.96;100.00;100990.13;4125428;28;20240;-45
2023/12/16 06:22:55;;;;;;;4.53;3.88;;;;;;;4.82;100.00;100993.38;4110941;28;20202;-45
2023/12/16 06:24:58;;;;;;;5.22;4.72;;;;;;;4.78;100.00;100991.94;4108276;28;20214;-45
2023/12/16 06:27:00;;;;;;;4.95;4.55;;;;;;;4.68;100.00;100996.56;4125161;28;20316;-45
2023/12/16 06:29:01;;;;;;;3.40;3.17;;;;;;;4.75;100.00;100992.28;4106868;28;20213;-45
2023/12/16 06:31:03;;;;;;;3.97;3.75;;;;;;;4.91;100.00;100989.72;4113638;28;20656;-45
2023/12/16 06:33:05;;;;;;;4.50;4.20;;;;;;;4.81;100.00;100997.06;4127426;28;20207;-45
2023/12/16 06:35:07;;;;;;;4.72;3.47;;;;;;;4.93;100.00;100995.84;4118057;28;20277;-45
2023/12/16 06:37:09;;;;;;;4.18;3.97;;;;;;;4.76;100.00;100993.97;4116499;28;20238;-45
2023/12/16 06:39:11;;;;;;;6.85;4.00;;;;;;;4.61;100.00;101000.88;4129242;28;20226;-45
2023/12/16 06:41:15;;;;;;;2.80;2.53;;;;;;;4.79;100.00;101004.50;4128543;28;20212;-46
2023/12/16 06:43:17;;;;;;;6.80;5.07;;;;;;;4.74;100.00;101006.81;4115126;28;20647;-45
2023/12/16 06:45:19;;;;;;;7.68;3.70;;;;;;;4.50;100.00;101006.53;4103173;28;20233;-45
2023/12/16 06:47:21;;;;;;;4.50;4.10;;;;;;;4.46;100.00;101018.66;4096470;28;20702;-45
2023/12/16 06:49:22;;;;;;;4.55;4.10;;;;;;;4.49;100.00;101021.09;4113563;28;20238;-45
2023/12/16 06:51:24;;;;;;;5.22;4.85;;;;;;;4.45;100.00;101022.41;4126799;28;20214;-45
2023/12/16 06:53:26;;;;;;;5.18;4.80;;;;;;;4.36;100.00;101022.44;4119570;28;20219;-45
2023/12/16 06:55:28;;;;;;;19.80;3.50;;;;;;;4.39;100.00;101028.41;4109559;28;20242;-45
2023/12/16 06:57:29;;;;;;;3.83;3.53;;;;;;;4.31;100.00;101025.59;4093972;28;20255;-46
2023/12/16 06:59:32;;;;;;;5.28;4.72;;;;;;;4.16;100.00;101029.81;4118862;28;20693;-44
2023/12/16 07:01:34;;;;;;;4.15;3.78;;;;;;;4.32;100.00;101031.84;4103246;28;20286;-45
2023/12/16 07:03:36;;;;;;;4.32;3.92;;;;;;;4.24;100.00;101035.31;4106450;28;20207;-45
2023/12/16 07:05:38;;;;;;;3.25;2.88;;;;;;;4.25;100.00;101025.31;4122057;28;20280;-44
2023/12/16 07:07:39;;;;;;;3.47;3.28;;;;;;;4.16;100.00;101037.94;4114358;28;20292;-45
2023/12/16 07:09:42;;;;;;;5.68;3.28;;;;;;;4.19;100.00;101043.03;4111674;28;20214;-45
2023/12/16 07:11:44;;;;;;;5.03;4.57;;;;;;;4.32;100.00;101043.56;4108878;28;20215;-45
2023/12/16 07:13:45;;;;;;;3.75;3.40;;;;;;;4.26;100.00;101046.84;4108442;28;20206;-45
2023/12/16 07:15:47;;;;;;;4.68;3.15;;;;;;;4.30;100.00;101051.00;4126468;28;20286;-45
2023/12/16 07:17:49;;;;;;;3.08;2.85;;;;;;;4.50;100.00;101052.63;4108586;28;20237;-45
2023/12/16 07:19:51;;;;;;;3.35;2.83;;;;;;;4.47;100.00;101044.78;4106923;28;20215;-45
2023/12/16 07:21:53;;;;;;;4.72;3.70;;;;;;;4.24;100.00;101045.28;4110769;28;20210;-45
2023/12/16 07:23:55;;;;;;;3.67;3.38;;;;;;;4.19;100.00;101040.31;4108726;28;20214;-45
2023/12/16 07:25:57;;;;;;;4.07;3.67;;;;;;;4.23;100.00;101049.88;4108518;28;20246;-45
2023/12/16 07:27:59;;;;;;;4.25;3.95;;;;;;;4.45;100.00;101044.06;4114383;28;20648;-45
2023/12/16 07:30:02;;;;;;;3.50;3.22;;;;;;;4.35;100.00;101045.97;4093948;28;20609;-45
2023/12/16 07:32:04;;;;;;;4.40;4.10;;;;;;;4.19;100.00;101040.31;4109003;28;20612;-45
2023/12/16 07:34:06;;;;;;;3.42;3.17;;;;;;;4.17;100.00;101045.06;4107430;28;20221;-45
2023/12/16 07:36:08;;;;;;;5.85;5.35;;;;;;;4.08;100.00;101040.50;4108001;28;20215;-45
2023/12/16 07:38:10;;;;;;;4.18;3.78;;;;;;;4.06;100.00;101047.09;4107574;28;20261;-45
2023/12/16 07:40:12;;;;;;;4.40;3.80;;;;;;;4.10;100.00;101043.94;4107295;28;20576;-45
2023/12/16 07:42:14;;;;;;;6.45;3.97;;;;;;;4.05;100.00;101043.50;4109486;28;20932;-45
2023/12/16 07:44:16;;;;;;;3.65;3.25;;;;;;;4.11;100.00;101051.06;4120368;28;20221;-45
2023/12/16 07:46:18;;;;;;;4.30;3.90;;;;;;;4.16;100.00;101042.47;4109902;28;20210;-45
2023/12/16 07:48:19;;;;;;;5.53;3.30;;;;;;;4.15;100.00;101052.44;4113323;28;20230;-45
2023/12/16 07:50:22;;;;;;;4.03;3.70;;;;;;;4.26;100.00;101049.56;4125173;28;20229;-45
2023/12/16 07:52:24;;;;;;;8.82;6.75;;;;;;;4.37;100.00;101054.81;4107730;28;20206;-45
2023/12/16 07:54:27;;;;;;;5.07;4.68;;;;;;;4.33;100.00;101055.28;4118993;28;20217;-45
2023/12/16 07:56:29;;;;;;;5.80;4.85;;;;;;;4.34;100.00;101063.22;4107177;28;20225;-45
2023/12/16 07:58:31;;;;;;;3.90;2.75;;;;;;;4.39;100.00;101060.09;4106897;28;20792;-45
2023/12/16 08:00:33;;;;;;;10.65;5.75;;;;;;;4.37;100.00;101065.66;4100960;28;20270;-45
2023/12/16 08:02:35;;;;;;;6.72;5.95;;;;;;;4.37;100.00;101062.09;4102181;28;20301;-45
2023/12/16 08:04:40;;;;;;;7.60;6.88;;;;;;;4.43;100.00;101062.34;4104072;28;20648;-45
2023/12/16 08:06:42;;;;;;;6.80;6.20;;;;;;;4.48;100.00;101059.19;4117346;28;21046;-47
2023/12/16 08:08:45;;;;;;;5.85;5.25;;;;;;;4.58;100.00;101073.53;4087246;28;20223;-45
2023/12/16 08:10:46;;;;;;;7.30;6.70;;;;;;;4.65;100.00;101070.09;4119068;28;20631;-45
2023/12/16 08:12:48;;;;;;;9.23;5.75;;;;;;;4.48;100.00;101076.28;4111943;28;20237;-46
2023/12/16 08:14:50;;;;;;;8.27;6.35;;;;;;;4.45;100.00;101068.47;4109372;28;20305;-45
2023/12/16 08:16:52;;;;;;;5.05;4.65;;;;;;;4.60;100.00;101061.56;4110443;28;20262;-45
2023/12/16 08:18:53;;;;;;;4.00;3.67;;;;;;;4.44;100.00;101064.06;4108882;28;20735;-44
2023/12/16 08:20:55;;;;;;;5.45;4.13;;;;;;;4.39;100.00;101058.22;4098016;28;20203;-45
2023/12/16 08:22:57;;;;;;;4.07;3.53;;;;;;;4.44;100.00;101064.06;4112228;28;20265;-45
2023/12/16 08:24:59;;;;;;;4.25;3.85;;;;;;;4.45;100.00;101076.59;4113076;28;20198;-45
2023/12/16 08:27:01;;;;;;;6.13;5.57;;;;;;;4.65;100.00;101072.81;4116683;28;20236;-45
2023/12/16 08:29:02;;;;;;;5.47;4.97;;;;;;;4.66;100.00;101079.09;4122704;28;20657;-45
2023/12/16 08:31:04;;;;;;;4.63;3.97;;;;;;;4.57;100.00;101080.84;4102151;28;20661;-45
2023/12/16 08:33:06;;;;;;;3.72;3.45;;;;;;;4.55;100.00;101079.28;4096490;28;20716;-45
2023/12/16 08:35:08;;;;;;;6.80;6.22;;;;;;;4.58;100.00;101077.13;4110877;28;20285;-45
2023/12/16 08:37:10;;;;;;;3.70;3.45;;;;;;;4.71;100.00;101085.78;4105593;28;20253;-45
2023/12/16 08:39:12;;;;;;;4.63;4.22;;;;;;;4.65;100.00;101086.38;4125689;28;20230;-45
2023/12/16 08:41:14;;;;;;;4.20;3.80;;;;;;;4.73;100.00;101094.59;4113830;28;20647;-45
2023/12/16 08:43:16;;;;;;;2.85;2.65;;;;;;;4.89;100.00;101092.13;4113019;28;20214;-45
2023/12/16 08:45:18;;;;;;;4.45;4.05;;;;;;;4.84;100.00;101093.56;4114330;28;20207;-45
2023/12/16 08:47:19;;;;;;;24.98;4.28;;;;;;;4.73;100.00;101097.31;4125483;28;20689;-44
2023/12/16 08:49:21;;;;;;;5.13;4.68;;;;;;;4.75;100.00;101099.88;4114078;28;20823;-45
2023/12/16 08:51:23;;;;;;;4.47;3.75;;;;;;;4.72;100.00;101101.03;4106423;28;20210;-46
2023/12/16 08:53:25;;;;;;;4.68;4.38;;;;;;;4.73;100.00;101102.75;4123443;28;20686;-45
2023/12/16 08:55:27;;;;;;;4.28;3.88;;;;;;;4.80;100.00;101103.84;4111086;28;20231;-45
2023/12/16 08:57:30;;;;;;;4.25;3.45;;;;;;;4.89;100.00;101112.94;4111461;28;20333;-45
2023/12/16 08:59:31;;;;;;;7.95;6.53;;;;;;;4.91;100.00;101111.81;4110356;28;20218;-45
2023/12/16 09:01:33;;;;;;;5.78;4.22;;;;;;;4.97;100.00;101108.50;4110083;28;20210;-45
2023/12/16 09:03:35;;;;;;;4.60;4.15;;;;;;;5.03;100.00;101121.44;4113730;28;20206;-45
2023/12/16 09:05:37;;;;;;;6.93;3.45;;;;;;;5.02;100.00;101119.75;4109552;28;20665;-45
2023/12/16 09:07:38;;;;;;;5.10;4.60;;;;;;;5.03;100.00;101116.03;4107278;28;20318;-45
2023/12/16 09:09:41;;;;;;;3.88;3.40;;;;;;;5.03;100.00;101121.44;4107794;28;20215;-45
2023/12/16 09:11:46;;;;;;;5.05;2.95;;;;;;;5.06;100.00;101121.13;4113993;28;20219;-45
2023/12/16 09:13:47;;;;;;;2.92;2.72;;;;;;;5.02;100.00;101119.75;4108688;28;20276;-46
2023/12/16 09:15:49;;;;;;;10.23;3.55;;;;;;;5.07;100.00;101136.41;4110797;28;20285;-45
2023/12/16 09:17:51;;;;;;;3.30;2.92;;;;;;;5.22;100.00;101132.19;4123711;28;20229;-45
2023/12/16 09:19:53;;;;;;;5.07;4.63;;;;;;;5.20;100.00;101134.19;4112452;28;20238;-45
2023/12/16 09:21:54;;;;;;;3.20;3.00;;;;;;;5.21;100.00;101138.59;4108862;28;20217;-45
2023/12/16 09:23:56;;;;;;;2.22;2.13;;;;;;;5.24;100.00;101135.63;4112019;28;20576;-45
2023/12/16 09:25:58;;;;;;;4.68;4.25;;;;;;;5.29;100.00;101144.16;4125188;28;20206;-45